Time;durP1;ratioP1;P1;durP2;ratioP2;P2;SDS_P1;SDS_P2;PMS_P1;PMS_P2;Temp;Humidity;BMP_temperature;BMP_pressure;BME280_temperature;BME280_humidity;BME280_pressure;Samples;Min_cycle;Max_cycle;Signal;HPM_P1;HPM_P2
2023/04/09 00:04:33;;;;;;;48.80;25.27;;;;;;;-1.69;100.00;97431.50;10455328;28;20825;-73
2023/04/09 00:09:33;;;;;;;50.60;25.50;;;;;;;-1.67;100.00;97425.41;10455120;28;20572;-73
2023/04/09 00:14:34;;;;;;;50.47;25.13;;;;;;;-1.72;100.00;97417.03;10455060;28;20551;-74
2023/04/09 00:19:34;;;;;;;46.40;24.77;;;;;;;-1.67;100.00;97419.41;10455004;28;20624;-74
2023/04/09 00:24:34;;;;;;;38.70;17.73;;;;;;;-1.67;100.00;97416.84;10419940;28;20226;-74
2023/04/09 00:29:35;;;;;;;39.77;21.50;;;;;;;-1.71;100.00;97418.72;10454562;28;20184;-74
2023/04/09 00:34:37;;;;;;;41.30;21.73;;;;;;;-1.70;100.00;97414.41;10454479;28;20203;-74
2023/04/09 00:39:37;;;;;;;52.17;23.97;;;;;;;-1.66;100.00;97413.38;10435278;28;20215;-74
2023/04/09 00:44:38;;;;;;;43.87;22.40;;;;;;;-1.64;100.00;97406.44;10453596;28;20224;-73
2023/04/09 00:49:38;;;;;;;49.00;24.40;;;;;;;-1.64;100.00;97407.28;10419655;28;20249;-73
2023/04/09 00:54:39;;;;;;;41.17;23.27;;;;;;;-1.69;100.00;97408.38;10435324;28;20188;-74
2023/04/09 00:59:39;;;;;;;47.80;26.90;;;;;;;-1.76;100.00;97407.81;10453367;28;20211;-73
2023/04/09 01:04:41;;;;;;;57.03;29.20;;;;;;;-1.78;100.00;97417.28;10452497;28;20218;-74
2023/04/09 01:09:46;;;;;;;44.17;22.10;;;;;;;-1.55;100.00;97407.78;10452866;28;20667;-73
2023/04/09 01:15:10;;;;;;;47.07;23.90;;;;;;;-1.61;100.00;97414.00;10418250;28;20188;-74
2023/04/09 01:20:11;;;;;;;40.83;20.83;;;;;;;-1.50;100.00;97418.69;10434564;28;20282;-73
2023/04/09 01:25:39;;;;;;;46.00;24.50;;;;;;;-1.47;100.00;97416.84;10424667;28;20267;-73
2023/04/09 01:30:42;;;;;;;45.37;24.00;;;;;;;-1.37;100.00;97414.72;10392971;28;20242;-73
2023/04/09 01:35:45;;;;;;;40.43;21.20;;;;;;;-1.27;100.00;97407.47;10376432;28;20555;-74
2023/04/09 01:40:46;;;;;;;42.40;21.00;;;;;;;-1.14;100.00;97411.16;10421520;28;20232;-74
2023/04/09 01:45:47;;;;;;;35.13;20.77;;;;;;;-1.18;100.00;97412.22;10451827;28;20652;-73
2023/04/09 01:50:48;;;;;;;42.50;21.30;;;;;;;-1.24;100.00;97419.34;10433374;28;20187;-74
2023/04/09 01:55:48;;;;;;;32.07;17.57;;;;;;;-1.21;100.00;97420.06;10417110;28;20180;-74
2023/04/09 02:00:51;;;;;;;35.43;20.60;;;;;;;-1.20;100.00;97415.75;10433029;28;20219;-75
2023/04/09 02:06:08;;;;;;;35.37;19.67;;;;;;;-1.09;100.00;97410.97;10450957;28;20202;-74
2023/04/09 02:11:09;;;;;;;36.57;20.23;;;;;;;-1.10;100.00;97397.28;10432941;28;20187;-74
2023/04/09 02:16:10;;;;;;;29.70;16.90;;;;;;;-0.95;100.00;97407.78;10418371;28;20528;-74
2023/04/09 02:21:12;;;;;;;34.13;18.27;;;;;;;-0.97;100.00;97407.03;10446233;28;20227;-74
2023/04/09 02:26:13;;;;;;;31.00;19.30;;;;;;;-1.04;100.00;97403.03;10464542;28;20183;-74
2023/04/09 02:31:13;;;;;;;29.87;17.83;;;;;;;-0.96;100.00;97417.25;10464298;28;20195;-74
2023/04/09 02:36:13;;;;;;;28.90;17.70;;;;;;;-1.00;100.00;97415.69;10463545;28;20188;-74
2023/04/09 02:41:14;;;;;;;29.80;17.27;;;;;;;-0.95;100.00;97418.91;10463747;28;20239;-74
2023/04/09 02:46:14;;;;;;;32.97;16.93;;;;;;;-0.98;100.00;97413.06;10445833;28;20194;-74
2023/04/09 02:51:15;;;;;;;31.40;17.17;;;;;;;-1.04;100.00;97413.31;10406383;28;20195;-74
2023/04/09 02:56:15;;;;;;;32.20;17.03;;;;;;;-1.08;100.00;97404.94;10404535;28;20196;-74
2023/04/09 03:01:15;;;;;;;24.77;15.20;;;;;;;-1.09;100.00;97404.09;10422308;28;20251;-74
2023/04/09 03:06:17;;;;;;;27.90;16.13;;;;;;;-1.16;100.00;97402.69;10438234;28;20283;-74
2023/04/09 03:11:17;;;;;;;28.67;16.70;;;;;;;-1.20;100.00;97413.19;10441809;28;20229;-74
2023/04/09 03:16:18;;;;;;;29.33;17.07;;;;;;;-1.21;100.00;97411.50;10460150;28;20195;-74
2023/04/09 03:21:18;;;;;;;28.63;15.83;;;;;;;-1.19;100.00;97418.25;10441142;28;20259;-74
2023/04/09 03:26:21;;;;;;;28.07;16.23;;;;;;;-1.11;100.00;97417.91;10442604;28;20657;-74
2023/04/09 03:31:23;;;;;;;30.17;16.47;;;;;;;-0.98;100.00;97407.91;10434317;28;20188;-74
2023/04/09 03:36:26;;;;;;;31.53;17.13;;;;;;;-1.09;100.00;97414.38;10434703;28;20436;-74
2023/04/09 03:41:34;;;;;;;32.20;17.57;;;;;;;-1.09;100.00;97419.53;10419409;28;20240;-74
2023/04/09 03:46:38;;;;;;;30.97;17.07;;;;;;;-1.04;100.00;97415.91;10418611;28;20204;-73
2023/04/09 03:51:39;;;;;;;30.73;16.97;;;;;;;-1.01;100.00;97423.47;10434386;28;20184;-74
2023/04/09 03:56:39;;;;;;;28.50;16.23;;;;;;;-0.98;100.00;97423.34;10417871;28;20195;-73
2023/04/09 04:01:43;;;;;;;33.53;18.93;;;;;;;-0.80;100.00;97426.84;10434729;28;20580;-73
2023/04/09 04:06:44;;;;;;;28.47;16.77;;;;;;;-0.76;100.00;97434.34;10437523;28;20191;-73
2023/04/09 04:12:03;;;;;;;26.83;15.33;;;;;;;-0.79;100.00;97426.78;10455312;28;20188;-74
2023/04/09 04:17:21;;;;;;;29.40;15.67;;;;;;;-0.78;100.00;97423.31;10453195;28;20195;-74
2023/04/09 04:22:24;;;;;;;28.83;16.83;;;;;;;-0.83;100.00;97427.81;10436811;28;20216;-73
2023/04/09 04:27:27;;;;;;;32.50;17.50;;;;;;;-0.73;100.00;97436.78;10436129;28;20619;-73
2023/04/09 04:32:28;;;;;;;32.23;17.47;;;;;;;-0.67;100.00;97437.41;10436074;28;20279;-73
2023/04/09 04:37:29;;;;;;;29.10;17.10;;;;;;;-0.61;100.00;97422.56;10435352;28;20191;-74
2023/04/09 04:42:33;;;;;;;30.80;17.00;;;;;;;-0.56;100.00;97428.31;10435139;28;20228;-74
2023/04/09 04:47:37;;;;;;;30.33;16.30;;;;;;;-0.55;100.00;97430.00;10435647;28;20212;-74
2023/04/09 04:52:39;;;;;;;29.33;18.10;;;;;;;-0.48;100.00;97438.25;10435197;28;20218;-74
2023/04/09 04:57:40;;;;;;;34.80;20.53;;;;;;;-0.39;100.00;97439.59;10435317;28;20242;-74
2023/04/09 05:02:42;;;;;;;35.70;19.23;;;;;;;-0.35;100.00;97438.53;10434560;28;20220;-74
2023/04/09 05:07:55;;;;;;;34.70;18.93;;;;;;;-0.21;100.00;97446.44;10434896;28;20203;-74
2023/04/09 05:12:56;;;;;;;32.80;19.23;;;;;;;-0.23;100.00;97440.56;10434249;28;20182;-74
2023/04/09 05:18:06;;;;;;;36.70;18.00;;;;;;;-0.09;100.00;97447.63;10434406;28;20192;-73
2023/04/09 05:23:09;;;;;;;32.27;19.13;;;;;;;-0.16;100.00;97442.84;10433823;28;20227;-74
2023/04/09 05:28:15;;;;;;;38.30;19.47;;;;;;;-0.10;100.00;97440.78;10433813;28;20226;-74
2023/04/09 05:33:16;;;;;;;37.93;20.97;;;;;;;0.15;100.00;97450.78;10433839;28;20212;-74
2023/04/09 05:38:17;;;;;;;38.73;20.20;;;;;;;0.30;100.00;97453.53;10433502;28;20190;-75
2023/04/09 05:43:21;;;;;;;36.17;20.77;;;;;;;0.49;100.00;97461.19;10433256;28;20260;-74
2023/04/09 05:48:21;;;;;;;39.50;23.17;;;;;;;0.58;100.00;97459.91;10433554;28;20724;-75
2023/04/09 05:53:22;;;;;;;35.93;21.50;;;;;;;0.89;100.00;97460.03;10432320;28;20197;-75
2023/04/09 05:58:22;;;;;;;42.40;26.17;;;;;;;1.29;100.00;97445.97;10451440;28;20326;-75
2023/04/09 06:03:23;;;;;;;37.03;21.23;;;;;;;1.86;100.00;97445.53;10416169;28;20738;-75
2023/04/09 06:08:23;;;;;;;43.17;25.97;;;;;;;2.11;100.00;97427.75;10450862;28;20188;-75
2023/04/09 06:13:23;;;;;;;33.63;20.80;;;;;;;3.34;100.00;97419.72;10450199;28;20184;-74
2023/04/09 06:18:24;;;;;;;29.90;18.20;;;;;;;4.43;100.00;97393.00;10432545;28;20280;-75
2023/04/09 06:23:24;;;;;;;28.60;18.80;;;;;;;5.14;100.00;97378.66;10450409;28;20216;-74
2023/04/09 06:28:25;;;;;;;25.80;16.93;;;;;;;5.48;100.00;97359.88;10450045;28;20259;-75
2023/04/09 06:33:25;;;;;;;26.20;18.13;;;;;;;5.50;100.00;97364.03;10450368;28;20652;-74
2023/04/09 06:38:25;;;;;;;29.57;18.83;;;;;;;5.82;100.00;97366.13;10449611;28;20947;-75
2023/04/09 06:43:26;;;;;;;30.43;20.57;;;;;;;6.68;100.00;97342.53;10449470;28;20290;-75
2023/04/09 06:48:27;;;;;;;30.23;21.10;;;;;;;6.89;96.10;97327.03;10432015;28;20200;-74
2023/04/09 06:53:27;;;;;;;33.13;21.67;;;;;;;7.21;95.02;97336.72;10449617;28;20188;-75
2023/04/09 06:58:27;;;;;;;30.67;20.47;;;;;;;8.28;92.03;97335.09;10450021;28;20318;-74
2023/04/09 07:03:28;;;;;;;31.23;21.37;;;;;;;8.08;85.84;97292.38;10451097;28;20302;-76
2023/04/09 07:08:28;;;;;;;29.57;20.73;;;;;;;8.18;87.60;97316.75;10457648;28;20199;-76
2023/04/09 07:13:30;;;;;;;31.07;21.63;;;;;;;8.27;85.45;97311.72;10456696;28;20238;-76
2023/04/09 07:18:30;;;;;;;30.73;20.73;;;;;;;8.57;82.96;97290.94;10457027;28;20268;-76
2023/04/09 07:23:34;;;;;;;23.98;19.02;;;;;;;10.71;76.58;97244.16;10456554;28;20219;-75
2023/04/09 07:28:34;;;;;;;26.80;19.57;;;;;;;9.27;80.06;97296.28;10456210;28;20709;-75
2023/04/09 07:33:34;;;;;;;26.08;18.33;;;;;;;10.02;77.63;97280.13;10438519;28;20199;-75
2023/04/09 07:38:35;;;;;;;28.83;19.75;;;;;;;9.92;76.94;97290.59;10436562;28;20198;-75
2023/04/09 07:43:35;;;;;;;27.13;20.27;;;;;;;10.31;70.60;97203.31;10453877;28;20306;-75
2023/04/09 07:48:36;;;;;;;27.92;20.23;;;;;;;9.60;76.39;97294.28;10435545;28;20196;-77
2023/04/09 07:53:36;;;;;;;27.27;20.45;;;;;;;9.09;76.87;97285.63;10452996;28;20183;-75
2023/04/09 07:58:37;;;;;;;25.30;17.42;;;;;;;11.92;69.35;97218.53;10436212;28;20330;-76
2023/04/09 08:03:37;;;;;;;22.65;17.83;;;;;;;10.49;69.79;97219.13;10436934;28;20220;-75
2023/04/09 08:08:37;;;;;;;27.92;19.63;;;;;;;10.45;72.64;97276.22;10455136;28;20250;-75
2023/04/09 08:13:38;;;;;;;23.60;18.48;;;;;;;11.62;69.12;97234.66;10451129;28;20204;-75
2023/04/09 08:18:38;;;;;;;21.90;16.63;;;;;;;11.60;69.22;97253.16;10453650;28;20278;-75
2023/04/09 08:23:38;;;;;;;23.25;17.75;;;;;;;11.03;67.92;97229.78;10435868;28;20224;-75
2023/04/09 08:28:39;;;;;;;23.77;16.73;;;;;;;11.55;66.85;97237.88;10435240;28;20202;-76
2023/04/09 08:33:40;;;;;;;21.90;16.10;;;;;;;12.07;65.70;97221.44;10452888;28;20196;-77
2023/04/09 08:38:40;;;;;;;23.17;17.92;;;;;;;11.60;67.97;97258.41;10434699;28;20192;-76
2023/04/09 08:43:41;;;;;;;22.83;16.42;;;;;;;13.33;63.32;97214.78;10435499;28;20255;-77
2023/04/09 08:48:43;;;;;;;21.20;17.15;;;;;;;13.29;62.21;97203.78;10435646;28;20196;-76
2023/04/09 08:53:51;;;;;;;22.33;17.50;;;;;;;14.49;56.76;97126.00;10453142;28;20255;-77
2023/04/09 08:58:52;;;;;;;21.23;17.00;;;;;;;14.48;57.66;97164.69;10434805;28;20610;-77
2023/04/09 09:03:56;;;;;;;21.17;16.67;;;;;;;13.76;60.46;97207.63;10453042;28;20238;-77
2023/04/09 09:09:07;;;;;;;25.15;18.90;;;;;;;13.90;60.36;97227.22;10452620;28;20283;-77
2023/04/09 09:14:13;;;;;;;22.50;17.45;;;;;;;13.80;61.21;97235.28;10435198;28;20227;-76
2023/04/09 09:19:22;;;;;;;24.00;17.27;;;;;;;12.60;65.45;97289.75;10452658;28;20195;-76
2023/04/09 09:24:23;;;;;;;20.60;16.27;;;;;;;14.56;59.36;97216.56;10452365;28;20216;-76
2023/04/09 09:29:24;;;;;;;23.02;18.20;;;;;;;13.56;61.55;97238.72;10433338;28;20237;-76
2023/04/09 09:34:24;;;;;;;22.17;17.38;;;;;;;14.12;61.31;97245.97;10434010;28;20230;-76
2023/04/09 09:39:41;;;;;;;22.52;18.13;;;;;;;14.31;61.32;97245.63;10451179;28;20180;-76
2023/04/09 09:44:42;;;;;;;22.88;18.08;;;;;;;13.77;62.46;97251.41;10451865;28;20613;-76
2023/04/09 09:49:42;;;;;;;23.10;18.33;;;;;;;13.97;60.54;97224.75;10433752;28;20187;-77
2023/04/09 09:54:46;;;;;;;25.67;18.13;;;;;;;14.03;58.42;97169.59;10433626;28;20220;-76
2023/04/09 09:59:51;;;;;;;25.30;18.60;;;;;;;12.69;61.75;97204.72;10433816;28;20275;-76
2023/04/09 10:04:51;;;;;;;19.90;15.88;;;;;;;13.09;62.69;97232.13;10433140;28;20656;-76
2023/04/09 10:09:53;;;;;;;20.50;16.38;;;;;;;13.48;60.43;97199.22;10451208;28;20188;-75
2023/04/09 10:15:03;;;;;;;21.67;16.75;;;;;;;12.73;61.30;97195.53;10432596;28;20222;-79
2023/04/09 10:20:10;;;;;;;19.73;16.55;;;;;;;12.41;62.50;97211.97;10432948;28;20199;-76
2023/04/09 10:25:11;;;;;;;22.05;16.30;;;;;;;13.34;59.01;97166.47;10450692;28;20242;-75
2023/04/09 10:30:34;;;;;;;20.00;15.10;;;;;;;13.16;60.51;97188.44;10432924;28;20214;-76
2023/04/09 10:35:35;;;;;;;18.35;14.38;;;;;;;14.65;56.30;97144.41;10449845;28;20299;-76
2023/04/09 10:41:05;;;;;;;18.98;13.57;;;;;;;15.02;54.75;97129.69;10456481;28;20277;-76
2023/04/09 10:46:24;;;;;;;17.33;13.32;;;;;;;13.48;57.27;97138.69;10405392;28;20200;-76
2023/04/09 10:51:25;;;;;;;13.55;10.80;;;;;;;14.57;53.65;97092.50;10457828;28;20273;-76
2023/04/09 10:56:25;;;;;;;17.48;14.23;;;;;;;13.51;58.09;97154.97;10458304;28;20652;-75
2023/04/09 11:01:26;;;;;;;18.63;13.90;;;;;;;12.80;58.78;97153.66;10440061;28;20555;-75
2023/04/09 11:06:27;;;;;;;20.58;16.23;;;;;;;12.27;60.69;97176.59;10457909;28;20602;-75
2023/04/09 11:11:28;;;;;;;17.33;13.07;;;;;;;12.57;58.46;97146.34;10439541;28;20223;-75
2023/04/09 11:16:29;;;;;;;17.48;14.10;;;;;;;13.23;58.62;97164.09;10439644;28;20196;-76
2023/04/09 11:21:30;;;;;;;21.05;15.25;;;;;;;12.89;60.47;97191.31;10439446;28;20196;-76
2023/04/09 11:26:34;;;;;;;18.65;14.68;;;;;;;13.15;59.86;97194.66;10439489;28;20188;-77
2023/04/09 11:31:35;;;;;;;22.10;17.10;;;;;;;13.32;60.93;97224.50;10456665;28;20687;-76
2023/04/09 11:36:35;;;;;;;17.85;13.50;;;;;;;13.69;58.80;97186.41;10456391;28;20192;-76
2023/04/09 11:41:36;;;;;;;18.98;14.77;;;;;;;14.71;53.98;97106.78;10456000;28;20326;-76
2023/04/09 11:46:40;;;;;;;25.33;18.17;;;;;;;13.54;59.40;97190.69;10456394;28;20196;-76
2023/04/09 11:51:40;;;;;;;20.35;16.80;;;;;;;13.82;59.55;97195.63;10420402;28;20211;-75
2023/04/09 11:56:41;;;;;;;18.80;14.93;;;;;;;14.61;55.21;97133.38;10456154;28;20192;-76
2023/04/09 12:01:48;;;;;;;20.77;16.42;;;;;;;14.33;56.80;97161.94;10455323;28;20210;-78
2023/04/09 12:06:48;;;;;;;19.08;16.60;;;;;;;13.25;60.39;97206.88;10455365;28;20196;-78
2023/04/09 12:11:49;;;;;;;21.38;15.80;;;;;;;14.81;54.59;97125.06;10455550;28;20577;-78
2023/04/09 12:16:50;;;;;;;20.33;16.88;;;;;;;14.84;54.47;97131.78;10454692;28;20659;-76
2023/04/09 12:21:57;;;;;;;23.50;18.02;;;;;;;14.58;56.88;97180.34;10455007;28;20184;-78
2023/04/09 12:26:57;;;;;;;18.15;14.95;;;;;;;15.23;52.96;97102.69;10454881;28;20593;-77
2023/04/09 12:31:57;;;;;;;22.75;15.07;;;;;;;14.73;54.09;97128.56;10454029;28;20216;-79
2023/04/09 12:36:58;;;;;;;19.67;15.63;;;;;;;13.64;57.35;97174.72;10454199;28;20645;-77
2023/04/09 12:41:58;;;;;;;19.73;15.15;;;;;;;12.82;57.69;97155.13;10453607;28;20231;-78
2023/04/09 12:46:59;;;;;;;15.35;11.98;;;;;;;12.52;57.49;97139.91;10455854;28;20243;-78
2023/04/09 12:51:59;;;;;;;17.52;13.25;;;;;;;13.08;57.55;97169.16;10453656;28;20218;-78
2023/04/09 12:56:59;;;;;;;17.30;14.10;;;;;;;13.44;55.90;97124.19;10451051;28;20216;-78
2023/04/09 13:02:00;;;;;;;18.52;14.18;;;;;;;13.05;57.06;97140.56;10450106;28;20652;-77
2023/04/09 13:07:00;;;;;;;18.20;14.18;;;;;;;13.65;55.48;97132.41;10450562;28;20195;-77
2023/04/09 13:12:01;;;;;;;17.70;13.27;;;;;;;12.83;57.13;97143.66;10453169;28;20305;-77
2023/04/09 13:17:01;;;;;;;19.45;15.05;;;;;;;13.31;54.60;97093.09;10452923;28;20202;-77
2023/04/09 13:22:02;;;;;;;18.65;14.15;;;;;;;13.64;54.59;97101.81;10434813;28;20184;-76
2023/04/09 13:27:03;;;;;;;23.17;17.02;;;;;;;13.05;56.09;97112.47;10452026;28;20961;-76
2023/04/09 13:32:06;;;;;;;19.95;15.73;;;;;;;13.11;57.33;97132.88;10452039;28;20227;-77
2023/04/09 13:37:06;;;;;;;19.38;15.23;;;;;;;13.15;55.55;97089.44;10451807;28;20196;-77
2023/04/09 13:42:07;;;;;;;15.30;12.68;;;;;;;14.30;52.03;97050.78;10447637;28;20240;-77
2023/04/09 13:47:09;;;;;;;16.35;12.90;;;;;;;13.62;52.91;97047.69;10443597;28;20199;-76
2023/04/09 13:52:10;;;;;;;14.77;11.43;;;;;;;13.96;51.78;97026.38;10447228;28;20211;-76
2023/04/09 13:57:10;;;;;;;14.55;11.68;;;;;;;14.21;52.26;97042.06;10472708;28;20203;-76
2023/04/09 14:02:11;;;;;;;17.95;13.15;;;;;;;14.68;50.98;97033.28;10466132;28;20199;-75
2023/04/09 14:07:11;;;;;;;19.60;14.80;;;;;;;13.17;54.50;97069.06;10446313;28;20338;-76
2023/04/09 14:12:11;;;;;;;19.30;15.27;;;;;;;13.84;53.88;97067.22;10449987;28;20216;-75
2023/04/09 14:17:12;;;;;;;22.50;16.38;;;;;;;13.08;56.58;97112.16;10432971;28;20557;-76
2023/04/09 14:22:12;;;;;;;21.67;16.60;;;;;;;13.73;54.98;97082.38;10432736;28;20559;-75
2023/04/09 14:27:13;;;;;;;17.90;14.35;;;;;;;14.37;53.62;97078.91;10446077;28;20203;-75
2023/04/09 14:32:13;;;;;;;24.05;16.25;;;;;;;15.79;50.95;97062.78;10461154;28;20310;-75
2023/04/09 14:37:13;;;;;;;19.25;14.23;;;;;;;17.72;45.91;97002.34;10454908;28;20203;-74
2023/04/09 14:42:14;;;;;;;16.65;13.80;;;;;;;18.69;42.30;96939.47;10459215;28;20243;-74
2023/04/09 14:47:14;;;;;;;17.33;13.52;;;;;;;16.85;45.79;96969.88;10448785;28;20196;-77
2023/04/09 14:52:15;;;;;;;17.30;14.10;;;;;;;15.80;47.40;96982.53;10449433;28;20277;-76
2023/04/09 14:57:15;;;;;;;13.73;11.10;;;;;;;18.69;43.27;96966.00;10447977;28;20191;-77
2023/04/09 15:02:28;;;;;;;14.68;12.60;;;;;;;19.54;40.38;96924.72;10448927;28;20188;-78
2023/04/09 15:07:28;;;;;;;17.30;14.45;;;;;;;19.17;39.62;96893.34;10446324;28;20610;-75
2023/04/09 15:12:57;;;;;;;16.33;14.35;;;;;;;20.12;38.32;96894.69;10448214;28;20220;-77
2023/04/09 15:18:04;;;;;;;17.45;14.77;;;;;;;19.09;40.11;96896.22;10448023;28;20199;-75
2023/04/09 15:23:04;;;;;;;19.02;15.48;;;;;;;21.34;38.18;96928.25;10448564;28;20279;-75
2023/04/09 15:28:05;;;;;;;17.90;15.18;;;;;;;22.61;36.73;96924.91;10454832;28;20200;-76
2023/04/09 15:33:05;;;;;;;20.15;17.00;;;;;;;20.20;39.94;96937.03;10454956;28;20591;-76
2023/04/09 15:38:06;;;;;;;21.33;17.10;;;;;;;19.55;40.18;96916.56;10455676;28;20187;-76
2023/04/09 15:43:06;;;;;;;18.58;16.13;;;;;;;18.40;41.63;96922.06;10455557;28;20261;-75
2023/04/09 15:48:06;;;;;;;20.23;16.70;;;;;;;19.55;40.31;96940.47;10453590;28;20263;-76
2023/04/09 15:53:43;;;;;;;19.48;16.38;;;;;;;18.08;43.68;96976.66;10456413;28;20745;-77
2023/04/09 15:58:44;;;;;;;20.25;15.55;;;;;;;17.19;45.00;96972.81;10455414;28;20255;-76
2023/04/09 16:03:49;;;;;;;23.95;17.67;;;;;;;16.43;44.76;96942.38;10454737;28;20223;-76
2023/04/09 16:08:49;;;;;;;22.35;17.33;;;;;;;16.58;44.62;96952.91;10450363;28;20207;-76
2023/04/09 16:13:50;;;;;;;26.33;21.30;;;;;;;16.63;44.25;96942.59;10455251;28;20230;-75
2023/04/09 16:18:51;;;;;;;21.05;17.13;;;;;;;17.17;43.50;96937.78;10454144;28;20652;-75
2023/04/09 16:23:51;;;;;;;16.75;13.85;;;;;;;17.07;43.07;96924.88;10455304;28;20195;-76
2023/04/09 16:28:51;;;;;;;21.27;16.60;;;;;;;18.10;42.73;96964.00;10449488;28;20196;-75
2023/04/09 16:33:52;;;;;;;22.45;16.35;;;;;;;14.97;46.40;96939.44;10447921;28;20257;-76
2023/04/09 16:38:52;;;;;;;17.20;13.45;;;;;;;14.72;48.27;96986.31;10448021;28;20188;-76
2023/04/09 16:43:53;;;;;;;18.73;14.48;;;;;;;15.40;46.21;96965.28;10430381;28;20323;-75
2023/04/09 16:48:53;;;;;;;16.63;13.45;;;;;;;14.54;47.74;96973.38;10449403;28;20213;-76
2023/04/09 16:53:53;;;;;;;19.20;13.63;;;;;;;13.94;49.70;97014.38;10451456;28;20211;-76
2023/04/09 16:58:54;;;;;;;14.50;11.52;;;;;;;13.03;50.69;97012.69;10449555;28;20187;-76
2023/04/09 17:03:55;;;;;;;17.17;12.82;;;;;;;12.38;52.61;97047.56;10448266;28;20192;-75
2023/04/09 17:08:56;;;;;;;14.70;10.98;;;;;;;11.80;54.69;97074.53;10449204;28;20275;-76
2023/04/09 17:13:56;;;;;;;18.27;13.43;;;;;;;11.32;57.04;97108.16;10452848;28;20749;-75
2023/04/09 17:18:56;;;;;;;17.73;12.48;;;;;;;11.15;57.93;97128.13;10452075;28;20576;-75
2023/04/09 17:23:57;;;;;;;15.48;11.07;;;;;;;10.78;57.22;97110.72;10452599;28;20592;-75
2023/04/09 17:28:57;;;;;;;17.10;10.48;;;;;;;10.69;56.43;97091.50;10452379;28;20636;-75
2023/04/09 17:33:57;;;;;;;14.32;10.32;;;;;;;10.51;57.83;97112.41;10451891;28;20637;-74
2023/04/09 17:38:58;;;;;;;15.45;10.82;;;;;;;10.29;57.66;97114.44;10451912;28;20563;-75
2023/04/09 17:43:58;;;;;;;14.40;10.23;;;;;;;9.96;59.35;97145.38;10450772;28;20659;-75
2023/04/09 17:48:59;;;;;;;15.38;10.52;;;;;;;9.69;61.45;97176.69;10450012;28;20207;-75
2023/04/09 17:54:00;;;;;;;12.48;9.75;;;;;;;9.61;61.78;97182.63;10449266;28;20226;-75
2023/04/09 17:59:00;;;;;;;12.50;9.23;;;;;;;9.72;64.42;97237.41;10449089;28;20738;-75
2023/04/09 18:04:00;;;;;;;12.55;9.25;;;;;;;9.47;63.83;97215.25;10446313;28;20188;-74
2023/04/09 18:09:01;;;;;;;14.60;9.38;;;;;;;9.40;64.57;97237.69;10452998;28;20200;-75
2023/04/09 18:14:06;;;;;;;19.27;12.02;;;;;;;9.06;67.53;97269.41;10447913;28;20361;-75
2023/04/09 18:19:07;;;;;;;16.98;11.07;;;;;;;8.89;68.25;97273.47;10446419;28;20294;-75
2023/04/09 18:24:07;;;;;;;16.93;11.67;;;;;;;8.11;70.68;97310.38;10445933;28;20192;-76
2023/04/09 18:29:07;;;;;;;15.90;11.17;;;;;;;7.41;74.54;97348.19;10446262;28;20195;-76
2023/04/09 18:34:08;;;;;;;17.97;12.80;;;;;;;6.91;76.77;97359.00;10444439;28;20334;-76
2023/04/09 18:39:08;;;;;;;14.53;10.67;;;;;;;6.95;78.63;97363.00;10445267;28;20203;-76
2023/04/09 18:44:08;;;;;;;15.00;10.63;;;;;;;6.92;79.21;97355.44;10445863;28;20242;-76
2023/04/09 18:49:09;;;;;;;13.37;9.40;;;;;;;6.33;82.93;97372.03;10445588;28;20202;-76
2023/04/09 18:54:09;;;;;;;14.43;10.57;;;;;;;6.25;85.03;97373.41;10445461;28;20307;-75
2023/04/09 18:59:10;;;;;;;16.70;10.77;;;;;;;5.90;87.17;97368.97;10447552;28;20184;-74
2023/04/09 19:04:10;;;;;;;18.37;11.70;;;;;;;5.84;90.40;97368.59;10456277;28;20188;-75
2023/04/09 19:09:11;;;;;;;15.60;10.97;;;;;;;5.86;90.91;97361.50;10456385;28;20587;-74
2023/04/09 19:14:11;;;;;;;14.30;9.50;;;;;;;5.74;93.39;97363.22;10455478;28;20220;-75
2023/04/09 19:19:11;;;;;;;19.77;12.60;;;;;;;5.63;94.87;97363.16;10456816;28;20185;-74
2023/04/09 19:24:12;;;;;;;21.03;15.43;;;;;;;5.45;96.61;97360.94;10456470;28;20199;-74
2023/04/09 19:29:12;;;;;;;33.20;24.47;;;;;;;5.45;98.28;97363.56;10455960;28;20271;-77
2023/04/09 19:34:13;;;;;;;15.57;10.90;;;;;;;5.34;100.00;97371.25;10456003;28;20231;-76
2023/04/09 19:39:14;;;;;;;34.20;18.67;;;;;;;5.23;100.00;97368.59;10456040;28;20237;-76
2023/04/09 19:44:14;;;;;;;22.43;15.03;;;;;;;5.16;100.00;97365.56;10455470;28;20326;-76
2023/04/09 19:49:15;;;;;;;16.97;10.93;;;;;;;5.25;100.00;97367.50;10455073;28;20200;-76
2023/04/09 19:54:15;;;;;;;17.07;10.23;;;;;;;5.21;100.00;97366.09;10453931;28;20224;-76
2023/04/09 19:59:15;;;;;;;14.40;9.80;;;;;;;5.22;100.00;97357.34;10452184;28;20187;-76
2023/04/09 20:04:16;;;;;;;40.87;29.77;;;;;;;5.16;100.00;97362.97;10452365;28;20188;-75
2023/04/09 20:09:17;;;;;;;31.33;23.47;;;;;;;5.16;100.00;97365.56;10453871;28;20203;-76
2023/04/09 20:14:17;;;;;;;14.63;9.93;;;;;;;5.16;100.00;97363.81;10453568;28;20216;-76
2023/04/09 20:19:18;;;;;;;19.47;12.67;;;;;;;5.08;100.00;97365.28;10453618;28;20737;-76
2023/04/09 20:24:18;;;;;;;17.27;11.53;;;;;;;5.00;100.00;97364.03;10454064;28;20699;-75
2023/04/09 20:29:19;;;;;;;24.57;12.60;;;;;;;4.90;100.00;97373.41;10454422;28;20274;-76
2023/04/09 20:34:25;;;;;;;35.33;21.50;;;;;;;4.91;100.00;97369.03;10453582;28;20254;-75
2023/04/09 20:39:25;;;;;;;29.97;20.37;;;;;;;4.82;100.00;97366.13;10453726;28;20525;-75
2023/04/09 20:44:26;;;;;;;19.53;13.60;;;;;;;4.73;100.00;97373.69;10453627;28;20184;-76
2023/04/09 20:49:27;;;;;;;18.07;12.63;;;;;;;4.85;100.00;97364.25;10453412;28;20697;-76
2023/04/09 20:54:28;;;;;;;19.07;10.43;;;;;;;4.85;100.00;97365.06;10453164;28;20230;-76
2023/04/09 20:59:28;;;;;;;15.23;10.40;;;;;;;4.70;100.00;97369.56;10452422;28;20179;-76
2023/04/09 21:04:29;;;;;;;15.93;10.43;;;;;;;4.72;100.00;97374.66;10453307;28;20195;-75
2023/04/09 21:09:30;;;;;;;16.07;10.30;;;;;;;4.60;100.00;97376.31;10453484;28;20192;-74
2023/04/09 21:14:30;;;;;;;15.00;10.10;;;;;;;4.53;100.00;97382.81;10452831;28;20227;-75
2023/04/09 21:19:31;;;;;;;19.63;11.27;;;;;;;4.24;100.00;97376.03;10453096;28;20202;-76
2023/04/09 21:24:32;;;;;;;16.93;11.10;;;;;;;4.00;100.00;97388.00;10452644;28;20196;-75
2023/04/09 21:29:33;;;;;;;23.70;12.90;;;;;;;3.87;100.00;97393.97;10452477;28;20214;-75
2023/04/09 21:34:36;;;;;;;15.90;11.13;;;;;;;3.85;100.00;97395.00;10452398;28;20341;-74
2023/04/09 21:39:37;;;;;;;16.63;9.77;;;;;;;3.73;100.00;97406.97;10451910;28;20664;-75
2023/04/09 21:44:37;;;;;;;16.83;11.27;;;;;;;3.63;100.00;97401.53;10452238;28;20646;-75
2023/04/09 21:49:38;;;;;;;17.57;10.70;;;;;;;3.69;100.00;97402.91;10451959;28;20199;-75
2023/04/09 21:54:40;;;;;;;17.23;11.73;;;;;;;3.69;100.00;97397.72;10451497;28;20216;-75
2023/04/09 21:59:42;;;;;;;14.70;10.73;;;;;;;3.55;100.00;97389.06;10451569;28;20684;-74
2023/04/09 22:04:42;;;;;;;16.93;10.93;;;;;;;3.46;100.00;97383.63;10451193;28;20192;-75
2023/04/09 22:09:42;;;;;;;21.50;12.13;;;;;;;3.41;100.00;97388.25;10451439;28;20274;-75
2023/04/09 22:14:44;;;;;;;14.20;9.87;;;;;;;3.33;100.00;97384.38;10432946;28;20234;-75
2023/04/09 22:19:45;;;;;;;13.83;8.87;;;;;;;3.25;100.00;97381.44;10451111;28;20192;-75
2023/04/09 22:24:45;;;;;;;15.40;11.60;;;;;;;3.10;100.00;97377.19;10450757;28;20652;-74
2023/04/09 22:29:46;;;;;;;17.80;12.47;;;;;;;2.97;100.00;97377.09;10451225;28;20194;-75
2023/04/09 22:34:46;;;;;;;16.97;9.93;;;;;;;3.04;100.00;97392.16;10453911;28;20315;-74
2023/04/09 22:39:46;;;;;;;12.17;7.93;;;;;;;2.97;100.00;97387.44;10458781;28;20234;-74
2023/04/09 22:44:47;;;;;;;12.87;8.43;;;;;;;2.94;100.00;97377.28;10459405;28;20674;-74
2023/04/09 22:49:51;;;;;;;18.37;10.73;;;;;;;2.91;100.00;97372.28;10458615;28;20311;-74
2023/04/09 22:54:51;;;;;;;17.27;10.93;;;;;;;2.76;100.00;97372.28;10458619;28;20219;-74